CDT,Max TemperatureF,Mean TemperatureF,Min TemperatureF,Max Dew PointF,MeanDew PointF,Min DewpointF,Max Humidity, Mean Humidity, Min Humidity, Max Sea Level PressureIn, Mean Sea Level PressureIn, Min Sea Level PressureIn, Max VisibilityMiles, Mean VisibilityMiles, Min VisibilityMiles, Max Wind SpeedMPH, Mean Wind SpeedMPH, Max Gust SpeedMPH,PrecipitationIn, CloudCover, Events, WindDirDegrees
2012-10-1,64,54,44,46,43,36,100,66,34,29.93,29.86,29.80,10,10,10,12,5,17,0.00,1,,50
2012-10-2,64,58,51,55,49,39,94,74,42,29.89,29.83,29.78,10,9,2,15,7,22,0.00,8,Rain,29
2012-10-3,59,56,53,59,56,52,100,95,88,30.06,29.97,29.87,7,4,2,13,5,21,0.06,8,Rain,163
2012-10-4,80,66,51,59,52,46,100,73,30,30.15,30.09,30.02,10,10,5,21,7,30,0.12,4,Rain-Thunderstorm,223
2012-10-5,51,44,37,50,41,36,94,86,66,30.19,30.14,30.09,10,10,10,9,6,,0.05,7,Rain,260
2012-10-6,50,41,32,36,31,28,100,69,43,30.18,30.14,30.08,10,10,10,12,6,17,0.01,4,,273
2012-10-7,51,40,30,34,28,19,100,65,30,30.19,30.16,30.14,10,10,10,12,5,17,0.01,3,,261
2012-10-8,57,42,26,34,28,23,100,66,29,30.21,30.15,30.07,10,10,10,13,4,23,0.00,0,,189
2012-10-9,64,50,37,43,36,32,93,57,34,30.08,29.97,29.87,10,10,10,21,9,28,0.00,1,Rain,194
2012-10-10,51,42,32,43,33,21,100,75,30,30.21,30.09,29.94,10,9,4,21,8,31,0.01,2,Rain,266
2012-10-11,62,47,32,45,32,28,100,60,27,30.22,30.17,30.10,10,10,10,21,8,28,0.00,1,,212
2012-10-12,57,48,37,43,31,18,87,56,23,30.43,30.34,30.22,10,10,7,14,8,18,0.00,1,,48
2012-10-13,64,53,42,63,48,28,100,79,53,30.27,30.04,29.86,10,7,3,16,9,24,0.36,6,Rain-Thunderstorm,166
2012-10-14,71,61,51,63,57,46,100,82,57,29.84,29.68,29.51,10,9,2,30,15,45,0.00,7,Rain,211
2012-10-15,59,50,41,48,40,34,100,76,39,29.98,29.91,29.80,10,10,3,14,8,18,0.00,3,,289
2012-10-16,68,52,37,48,41,36,100,66,37,29.99,29.82,29.64,10,10,7,18,7,28,0.00,1,,139
2012-10-17,68,62,55,55,50,45,94,69,49,29.66,29.55,29.38,10,10,7,23,12,36,0.00,4,Rain-Thunderstorm,174
2012-10-18,59,52,44,55,42,30,100,79,36,29.61,29.50,29.38,10,10,5,25,12,38,0.00,5,Rain,218
2012-10-19,50,47,44,48,44,43,100,94,87,29.66,29.54,29.47,10,8,1,15,8,21,0.00,7,Rain,213
2012-10-20,55,46,37,46,41,36,100,87,54,29.96,29.83,29.67,10,8,0,13,7,18,0.00,4,Fog,243
2012-10-21,69,51,33,50,42,34,100,79,40,30.08,30.02,29.97,10,8,2,12,3,18,0.00,0,,126
2012-10-22,71,60,50,63,56,46,94,84,53,30.05,29.97,29.92,10,10,4,17,6,23,0.00,5,Rain-Thunderstorm,158
2012-10-23,64,62,59,63,58,54,100,87,68,30.01,29.95,29.91,10,9,3,15,6,23,0.00,7,Rain-Thunderstorm,180
2012-10-24,78,68,59,63,59,55,88,76,57,30.00,29.96,29.92,10,10,10,14,7,20,0.00,2,,178
2012-10-25,78,61,44,59,55,43,93,72,47,30.05,29.88,29.78,10,10,5,24,12,34,0.00,3,Rain,191
2012-10-26,50,42,33,43,34,32,100,74,50,30.30,30.23,30.06,10,10,3,14,9,21,0.00,4,Rain,332
2012-10-27,51,42,32,36,33,32,100,78,47,30.28,30.24,30.19,10,10,10,14,6,21,0.00,3,,343
2012-10-28,50,41,32,34,31,25,100,70,37,30.25,30.21,30.18,10,10,10,15,7,23,0.00,4,,2
2012-10-29,51,40,30,36,30,27,100,64,38,30.21,30.16,29.95,10,10,10,23,10,33,0.00,2,,342
2012-10-30,44,42,39,36,32,30,81,69,61,29.94,29.78,29.73,10,10,7,21,17,34,0.00,7,,322
2012-10-31,44,40,35,34,30,28,76,67,53,29.85,29.80,29.74,10,10,7,15,9,24,0.00,6,,302